Time;durP1;ratioP1;P1;durP2;ratioP2;P2;SDS_P1;SDS_P2;PMS_P1;PMS_P2;Temp;Humidity;BMP_temperature;BMP_pressure;BME280_temperature;BME280_humidity;BME280_pressure;Samples;Min_cycle;Max_cycle;Signal;HPM_P1;HPM_P2
2022/06/04 00:02:15;;;;;;;5.85;5.35;;;18.00;99.90;;;;;;5032761;28;20210;-59
2022/06/04 00:04:42;;;;;;;7.97;5.63;;;18.00;99.90;;;;;;5032456;28;20202;-59
2022/06/04 00:07:09;;;;;;;7.05;6.18;;;18.00;99.90;;;;;;5032954;28;20226;-59
2022/06/04 00:09:35;;;;;;;7.25;5.93;;;18.10;99.90;;;;;;5033008;28;20202;-59
2022/06/04 00:17:31;;;;;;;8.32;5.82;;;18.00;99.90;;;;;;5032469;28;20712;-59
2022/06/04 00:19:58;;;;;;;12.43;5.80;;;17.90;99.90;;;;;;5031798;28;20214;-60
2022/06/04 00:22:25;;;;;;;8.50;5.63;;;17.90;99.90;;;;;;5032765;28;20651;-59
2022/06/04 00:24:53;;;;;;;6.90;6.20;;;17.90;99.90;;;;;;5032736;28;20280;-59
2022/06/04 00:27:21;;;;;;;6.70;6.10;;;17.90;99.90;;;;;;5032295;28;20306;-59
2022/06/04 00:29:48;;;;;;;24.60;22.15;;;17.80;99.90;;;;;;5032632;28;20206;-60
2022/06/04 00:32:17;;;;;;;7.93;7.00;;;17.90;99.90;;;;;;5032535;28;20252;-58
2022/06/04 00:34:45;;;;;;;9.60;7.28;;;17.80;99.90;;;;;;5032296;28;20222;-58
2022/06/04 00:37:12;;;;;;;7.82;6.82;;;17.80;99.90;;;;;;5032376;28;20242;-58
2022/06/04 00:39:40;;;;;;;7.88;6.88;;;17.80;99.90;;;;;;5032412;28;20210;-58
2022/06/04 00:42:10;;;;;;;8.77;6.80;;;17.80;99.90;;;;;;5032339;28;20614;-58
2022/06/04 00:45:25;;;;;;;9.25;6.55;;;17.70;99.90;;;;;;5032154;28;20636;-59
2022/06/04 00:47:52;;;;;;;8.20;6.75;;;17.70;99.90;;;;;;5032039;28;20234;-59
2022/06/04 00:50:22;;;;;;;8.55;6.15;;;17.60;99.90;;;;;;5031910;28;20976;-59
2022/06/04 00:52:50;;;;;;;9.35;6.80;;;17.60;99.90;;;;;;5032486;28;20225;-59
2022/06/04 00:55:19;;;;;;;9.55;7.00;;;17.60;99.90;;;;;;5031931;28;20206;-59
2022/06/04 00:58:11;;;;;;;6.80;6.10;;;17.60;99.90;;;;;;5031905;28;20231;-58
2022/06/04 01:00:44;;;;;;;6.63;6.05;;;17.50;99.90;;;;;;5031974;28;20213;-59
2022/06/04 01:03:24;;;;;;;9.10;6.43;;;17.40;99.90;;;;;;5032151;28;20221;-59
2022/06/04 01:06:06;;;;;;;8.10;7.18;;;17.40;99.90;;;;;;5031907;28;20360;-58
2022/06/04 01:08:54;;;;;;;10.05;6.78;;;17.40;99.90;;;;;;5031905;28;20674;-58
2022/06/04 01:12:09;;;;;;;10.68;7.10;;;17.40;99.90;;;;;;5031761;28;20257;-59
2022/06/04 01:14:44;;;;;;;8.07;6.55;;;17.30;99.90;;;;;;5031433;28;20252;-58
2022/06/04 01:17:19;;;;;;;8.85;6.55;;;17.30;99.90;;;;;;5031602;28;20222;-59
2022/06/04 01:19:56;;;;;;;11.13;7.10;;;17.30;99.90;;;;;;5032068;28;20186;-59
2022/06/04 01:22:59;;;;;;;7.33;6.63;;;17.20;99.90;;;;;;5031806;28;20740;-59
2022/06/04 01:25:38;;;;;;;9.30;7.10;;;17.20;99.90;;;;;;5031450;28;20230;-59
2022/06/04 01:28:08;;;;;;;10.23;6.55;;;17.20;99.90;;;;;;5031601;28;20603;-59
2022/06/04 01:30:41;;;;;;;9.07;6.68;;;17.20;99.90;;;;;;5033077;28;20213;-58
2022/06/04 01:33:12;;;;;;;9.18;6.85;;;17.30;99.90;;;;;;5035630;28;20772;-58
2022/06/04 01:35:44;;;;;;;7.60;6.80;;;17.30;99.90;;;;;;5035297;28;20205;-58
2022/06/04 01:38:14;;;;;;;9.57;7.05;;;17.30;99.90;;;;;;5035594;28;20669;-59
2022/06/04 01:43:33;;;;;;;8.20;6.47;;;17.20;99.90;;;;;;5035312;28;20209;-58
2022/06/04 01:46:03;;;;;;;7.47;6.68;;;17.10;99.90;;;;;;5035191;28;20701;-58
2022/06/04 01:48:33;;;;;;;7.67;6.67;;;17.00;99.90;;;;;;5035379;28;20210;-58
2022/06/04 01:51:04;;;;;;;9.27;7.27;;;16.90;99.90;;;;;;5035282;28;20301;-58
2022/06/04 01:53:35;;;;;;;7.73;6.87;;;17.00;99.90;;;;;;5035233;28;20206;-58
2022/06/04 01:56:05;;;;;;;10.45;6.90;;;17.00;99.90;;;;;;5035217;28;20651;-58
2022/06/04 01:58:38;;;;;;;10.73;7.63;;;16.90;99.90;;;;;;5035211;28;20250;-58
2022/06/04 02:01:09;;;;;;;7.67;7.03;;;16.90;99.90;;;;;;5035098;28;20206;-58
2022/06/04 02:03:42;;;;;;;9.57;6.67;;;16.90;99.90;;;;;;5035153;28;20222;-59
2022/06/04 02:06:12;;;;;;;7.77;6.97;;;16.90;99.90;;;;;;5035243;28;20600;-59
2022/06/04 02:08:44;;;;;;;7.10;6.40;;;16.90;99.90;;;;;;5035155;28;20238;-59
2022/06/04 02:11:15;;;;;;;13.93;7.40;;;16.90;99.90;;;;;;5034980;28;20233;-59
2022/06/04 02:13:46;;;;;;;8.10;7.23;;;16.90;99.90;;;;;;5034557;28;20210;-59
2022/06/04 02:16:20;;;;;;;7.38;6.68;;;16.90;99.90;;;;;;5034756;28;20227;-60
2022/06/04 02:18:48;;;;;;;9.07;6.37;;;16.90;99.90;;;;;;5035219;28;20206;-59
2022/06/04 02:21:16;;;;;;;7.03;6.40;;;16.90;99.90;;;;;;5034757;28;20213;-59
2022/06/04 02:23:44;;;;;;;8.35;6.55;;;16.90;99.90;;;;;;5034499;28;20225;-59
2022/06/04 02:26:11;;;;;;;6.83;6.20;;;16.90;99.90;;;;;;5034303;28;20768;-59
2022/06/04 02:28:37;;;;;;;6.30;5.70;;;16.80;99.90;;;;;;5034653;28;20210;-60
2022/06/04 02:31:12;;;;;;;9.40;6.80;;;16.80;99.90;;;;;;5034783;28;20214;-59
2022/06/04 02:33:49;;;;;;;7.97;6.20;;;16.80;99.90;;;;;;5034258;28;20585;-58
2022/06/04 02:36:25;;;;;;;7.55;6.22;;;16.80;99.90;;;;;;5034441;28;20218;-60
2022/06/04 02:38:59;;;;;;;7.07;6.20;;;16.80;99.90;;;;;;5034658;28;20198;-60
2022/06/04 02:41:32;;;;;;;9.10;6.00;;;16.80;99.90;;;;;;5034199;28;20205;-58
2022/06/04 02:44:07;;;;;;;11.80;6.43;;;16.80;99.90;;;;;;5033870;28;20206;-58
2022/06/04 02:46:41;;;;;;;6.95;5.35;;;16.80;99.90;;;;;;5034278;28;20685;-59
2022/06/04 02:49:10;;;;;;;9.63;6.10;;;16.80;99.90;;;;;;5034228;28;20221;-59
2022/06/04 02:51:40;;;;;;;8.90;5.77;;;16.80;99.90;;;;;;5034195;28;20206;-59
2022/06/04 02:54:24;;;;;;;8.40;7.07;;;16.80;99.90;;;;;;5034150;28;20214;-59
2022/06/04 02:56:53;;;;;;;7.20;6.40;;;16.70;99.90;;;;;;5034166;28;20230;-59
2022/06/04 02:59:23;;;;;;;9.47;6.50;;;16.70;99.90;;;;;;5034183;28;20210;-59
2022/06/04 03:01:54;;;;;;;9.18;6.15;;;16.70;99.90;;;;;;5034099;28;20214;-59
2022/06/04 03:04:21;;;;;;;7.25;6.55;;;16.70;99.90;;;;;;5034013;28;20299;-59
2022/06/04 03:06:48;;;;;;;8.33;6.23;;;16.60;99.90;;;;;;5034048;28;20623;-59
2022/06/04 03:09:18;;;;;;;6.83;6.23;;;16.60;99.90;;;;;;5033974;28;20755;-59
2022/06/04 03:11:46;;;;;;;7.30;5.90;;;16.60;99.90;;;;;;5033840;28;20206;-59
2022/06/04 03:14:14;;;;;;;6.80;6.10;;;16.50;99.90;;;;;;5033579;28;20218;-59
2022/06/04 03:16:43;;;;;;;6.70;5.90;;;16.50;99.90;;;;;;5033618;28;20231;-59
2022/06/04 03:19:12;;;;;;;7.50;5.70;;;16.50;99.90;;;;;;5033925;28;20210;-59
2022/06/04 03:21:40;;;;;;;6.20;5.10;;;16.50;99.90;;;;;;5034047;28;20210;-59
2022/06/04 03:24:09;;;;;;;7.82;6.05;;;16.50;99.90;;;;;;5033392;28;20214;-59
2022/06/04 03:26:36;;;;;;;6.30;5.80;;;16.60;99.90;;;;;;5033262;28;20615;-59
2022/06/04 03:29:03;;;;;;;8.30;5.93;;;16.50;99.90;;;;;;5033813;28;20214;-59
2022/06/04 03:31:30;;;;;;;7.47;5.77;;;16.50;99.90;;;;;;5034338;28;20218;-59
2022/06/04 03:33:57;;;;;;;7.20;5.90;;;16.50;99.90;;;;;;5033800;28;20240;-59
2022/06/04 03:36:26;;;;;;;7.78;6.28;;;16.60;99.90;;;;;;5033976;28;20226;-58
2022/06/04 03:38:55;;;;;;;6.47;5.57;;;16.60;99.90;;;;;;5034457;28;20629;-59
2022/06/04 03:41:22;;;;;;;5.93;5.33;;;16.70;99.90;;;;;;5034426;28;20256;-59
2022/06/04 03:43:51;;;;;;;6.10;5.50;;;16.70;99.90;;;;;;5034643;28;20206;-59
2022/06/04 03:46:19;;;;;;;6.00;5.43;;;16.80;99.90;;;;;;5033481;28;20230;-59
2022/06/04 03:48:45;;;;;;;6.47;5.80;;;16.80;99.90;;;;;;5033415;28;20214;-59
2022/06/04 03:51:12;;;;;;;6.27;5.67;;;16.90;99.90;;;;;;5033153;28;20736;-58
2022/06/04 03:53:40;;;;;;;6.23;5.63;;;17.00;99.90;;;;;;5032755;28;20256;-59
2022/06/04 03:56:07;;;;;;;8.03;5.63;;;17.20;99.90;;;;;;5032914;28;20222;-59
2022/06/04 03:58:33;;;;;;;5.85;5.35;;;17.30;99.90;;;;;;5033126;28;20624;-59
2022/06/04 04:01:00;;;;;;;6.57;5.60;;;17.40;99.90;;;;;;5033001;28;20214;-59
2022/06/04 04:03:27;;;;;;;6.30;5.13;;;17.50;99.90;;;;;;5032870;28;20202;-58
2022/06/04 04:05:55;;;;;;;6.97;5.32;;;17.60;99.90;;;;;;5032366;28;20242;-59
2022/06/04 04:08:24;;;;;;;6.13;5.23;;;17.80;99.90;;;;;;5032703;28;20210;-59
2022/06/04 04:10:52;;;;;;;8.52;4.63;;;17.90;99.90;;;;;;5032794;28;20207;-59
2022/06/04 04:13:20;;;;;;;5.38;4.82;;;18.10;99.90;;;;;;5032854;28;20252;-59
2022/06/04 04:15:46;;;;;;;6.78;4.80;;;18.20;99.90;;;;;;5032714;28;20210;-59
2022/06/04 04:18:14;;;;;;;6.10;4.75;;;18.40;99.90;;;;;;5032803;28;20210;-59
2022/06/04 04:20:44;;;;;;;5.75;4.68;;;18.40;99.90;;;;;;5032589;28;20206;-59
2022/06/04 04:23:11;;;;;;;4.45;4.05;;;18.40;99.90;;;;;;5032935;28;20214;-59
2022/06/04 04:25:39;;;;;;;4.50;4.10;;;18.40;99.90;;;;;;5032340;28;20265;-61
2022/06/04 04:28:09;;;;;;;6.10;5.05;;;18.60;99.90;;;;;;5032607;28;20284;-60
2022/06/04 04:30:37;;;;;;;6.10;4.85;;;18.70;99.90;;;;;;5032496;28;20297;-60
2022/06/04 04:33:05;;;;;;;7.13;4.82;;;18.80;99.90;;;;;;5032293;28;20693;-61
2022/06/04 04:35:34;;;;;;;6.95;4.88;;;18.90;99.90;;;;;;5032263;28;20260;-61
2022/06/04 04:38:02;;;;;;;5.45;4.75;;;18.90;99.90;;;;;;5032249;28;20630;-59
2022/06/04 04:40:30;;;;;;;5.68;4.60;;;19.00;99.90;;;;;;5032085;28;20569;-59
2022/06/04 04:42:58;;;;;;;5.47;4.25;;;19.20;99.90;;;;;;5032333;28;20207;-59
2022/06/04 04:45:27;;;;;;;4.72;4.22;;;19.30;99.90;;;;;;5031794;28;20210;-59
2022/06/04 04:47:55;;;;;;;4.88;4.47;;;19.40;99.90;;;;;;5031694;28;20709;-59
2022/06/04 04:50:26;;;;;;;7.70;5.03;;;19.30;99.90;;;;;;5032315;28;20218;-59
2022/06/04 04:52:53;;;;;;;10.27;7.28;;;19.30;99.90;;;;;;5032126;28;20682;-59
2022/06/04 04:55:20;;;;;;;6.25;4.32;;;19.30;99.90;;;;;;5031868;28;20210;-60
2022/06/04 04:57:47;;;;;;;8.45;4.15;;;19.50;99.90;;;;;;5031966;28;20230;-58
2022/06/04 05:00:15;;;;;;;6.43;3.75;;;20.40;99.90;;;;;;5031878;28;20202;-58
2022/06/04 05:02:44;;;;;;;3.67;3.08;;;21.70;99.90;;;;;;5032175;28;20214;-59
2022/06/04 05:05:12;;;;;;;6.32;3.40;;;22.90;99.90;;;;;;5031407;28;20217;-59
2022/06/04 05:07:39;;;;;;;4.80;3.47;;;23.60;99.90;;;;;;5031897;28;20321;-59
2022/06/04 05:10:07;;;;;;;4.80;3.53;;;24.40;99.90;;;;;;5031892;28;20745;-61
2022/06/04 05:12:33;;;;;;;5.53;2.90;;;25.60;99.90;;;;;;5031804;28;20214;-58
2022/06/04 05:15:00;;;;;;;5.00;3.10;;;27.00;99.90;;;;;;5031670;28;20209;-58
2022/06/04 05:17:27;;;;;;;5.05;3.20;;;28.40;99.90;;;;;;5031967;28;20229;-59
2022/06/04 05:19:55;;;;;;;4.10;2.60;;;29.30;99.90;;;;;;5031734;28;20653;-59
2022/06/04 05:22:22;;;;;;;5.25;3.60;;;29.50;99.90;;;;;;5031872;28;20226;-59
2022/06/04 05:24:49;;;;;;;5.60;2.90;;;29.20;99.90;;;;;;5031539;28;20215;-61
2022/06/04 05:27:16;;;;;;;4.63;3.17;;;28.40;99.90;;;;;;5031980;28;20507;-60
2022/06/04 05:29:42;;;;;;;3.92;2.92;;;27.60;99.90;;;;;;5031629;28;20214;-61
2022/06/04 05:32:10;;;;;;;3.80;3.40;;;26.90;99.90;;;;;;5031836;28;20213;-60
2022/06/04 05:34:37;;;;;;;3.17;2.88;;;26.40;99.90;;;;;;5031580;28;20240;-59
2022/06/04 05:37:06;;;;;;;4.07;3.15;;;25.70;99.90;;;;;;5031610;28;20288;-59
2022/06/04 05:39:33;;;;;;;5.53;5.03;;;25.00;99.90;;;;;;5031731;28;20222;-60
2022/06/04 05:42:00;;;;;;;3.33;2.95;;;24.60;99.90;;;;;;5031590;28;20215;-61
2022/06/04 05:44:28;;;;;;;4.72;3.42;;;24.20;99.90;;;;;;5031550;28;20233;-59
2022/06/04 05:46:55;;;;;;;3.55;3.25;;;23.70;99.90;;;;;;5031376;28;20226;-59
2022/06/04 05:49:21;;;;;;;5.53;3.10;;;23.30;99.90;;;;;;5031756;28;20206;-59
2022/06/04 05:51:51;;;;;;;5.20;3.70;;;23.00;99.90;;;;;;5031701;28;20214;-59
2022/06/04 05:54:20;;;;;;;6.30;5.28;;;22.90;99.90;;;;;;5031446;28;20697;-59
2022/06/04 05:56:48;;;;;;;4.25;3.58;;;22.90;99.90;;;;;;5031665;28;20237;-59
2022/06/04 05:59:18;;;;;;;6.40;5.55;;;23.00;99.90;;;;;;5032053;28;20210;-59
2022/06/04 06:01:45;;;;;;;6.82;5.30;;;23.10;99.90;;;;;;5031857;28;20214;-60
2022/06/04 06:04:14;;;;;;;10.70;7.00;;;23.00;99.90;;;;;;5031492;28;20263;-59
2022/06/04 06:06:43;;;;;;;9.25;5.50;;;23.00;99.90;;;;;;5031114;28;20256;-60
2022/06/04 06:09:12;;;;;;;6.22;5.57;;;23.00;99.90;;;;;;5031292;28;20215;-59
2022/06/04 06:11:41;;;;;;;5.20;4.15;;;23.10;99.90;;;;;;5031748;28;20206;-60
2022/06/04 06:14:09;;;;;;;4.97;3.95;;;23.00;99.90;;;;;;5031461;28;20210;-60
2022/06/04 06:16:38;;;;;;;4.32;3.83;;;22.90;99.90;;;;;;5031465;28;20277;-59
2022/06/04 06:19:04;;;;;;;9.63;5.15;;;22.90;99.90;;;;;;5034944;28;20577;-59
2022/06/04 06:21:33;;;;;;;5.65;4.28;;;22.80;99.90;;;;;;5034976;28;20214;-62
2022/06/04 06:24:02;;;;;;;4.60;4.20;;;22.60;99.90;;;;;;5035076;28;20209;-61
2022/06/04 06:26:30;;;;;;;7.50;4.50;;;22.50;99.90;;;;;;5034918;28;20234;-59
2022/06/04 06:29:01;;;;;;;7.68;5.53;;;22.30;99.90;;;;;;5034941;28;20210;-60
2022/06/04 06:31:29;;;;;;;8.18;4.18;;;22.10;99.90;;;;;;5034818;28;20210;-59
2022/06/04 06:33:56;;;;;;;10.15;4.75;;;21.90;99.90;;;;;;5034426;28;20264;-61
2022/06/04 06:36:23;;;;;;;9.10;4.90;;;21.70;99.90;;;;;;5034465;28;20236;-59
2022/06/04 06:38:50;;;;;;;9.80;4.53;;;21.50;99.90;;;;;;5034682;28;20202;-60
2022/06/04 06:41:20;;;;;;;7.40;4.80;;;21.30;99.90;;;;;;5034441;28;20631;-59
2022/06/04 06:43:49;;;;;;;10.88;6.70;;;21.10;99.90;;;;;;5034301;28;20214;-59
2022/06/04 06:46:20;;;;;;;9.95;5.75;;;21.00;99.90;;;;;;5034384;28;20284;-60
2022/06/04 06:48:49;;;;;;;11.32;6.03;;;20.90;99.90;;;;;;5034207;28;20230;-60
2022/06/04 06:51:22;;;;;;;8.23;5.93;;;20.70;99.90;;;;;;5034244;28;20604;-59
2022/06/04 06:53:50;;;;;;;8.77;6.00;;;20.60;99.90;;;;;;5034319;28;20214;-59
2022/06/04 06:56:19;;;;;;;6.65;5.40;;;20.50;99.90;;;;;;5034248;28;20606;-59
2022/06/04 06:58:46;;;;;;;8.27;5.85;;;20.40;99.90;;;;;;5034136;28;20199;-59
2022/06/04 07:01:14;;;;;;;7.40;5.72;;;20.30;99.90;;;;;;5033863;28;20571;-59
2022/06/04 07:03:43;;;;;;;9.30;5.53;;;20.30;99.90;;;;;;5033965;28;20689;-60
2022/06/04 07:06:12;;;;;;;6.32;5.72;;;20.40;99.90;;;;;;5033791;28;20230;-60
2022/06/04 07:08:42;;;;;;;8.35;5.50;;;20.40;99.90;;;;;;5033972;28;20222;-60
2022/06/04 07:11:10;;;;;;;7.22;5.63;;;20.40;99.90;;;;;;5033965;28;20435;-60
2022/06/04 07:13:37;;;;;;;7.13;6.22;;;20.40;99.90;;;;;;5033720;28;20333;-60
2022/06/04 07:16:04;;;;;;;9.18;5.82;;;20.40;99.90;;;;;;5033849;28;20234;-60
2022/06/04 07:18:31;;;;;;;7.90;5.43;;;20.50;99.90;;;;;;5033868;28;20260;-60
2022/06/04 07:20:59;;;;;;;7.38;5.20;;;20.50;99.90;;;;;;5033734;28;20226;-60
2022/06/04 07:23:26;;;;;;;8.50;5.55;;;20.50;99.90;;;;;;5034068;28;20207;-60
2022/06/04 07:25:53;;;;;;;9.00;5.15;;;20.50;99.90;;;;;;5033091;28;20230;-59
2022/06/04 07:28:20;;;;;;;7.68;5.57;;;20.40;99.90;;;;;;5033238;28;20214;-60
2022/06/04 07:30:46;;;;;;;7.43;5.60;;;20.30;99.90;;;;;;5033711;28;20205;-61
2022/06/04 07:33:13;;;;;;;6.15;4.95;;;20.40;99.90;;;;;;5033503;28;20636;-60
2022/06/04 07:35:46;;;;;;;6.82;5.40;;;20.50;99.90;;;;;;5033356;28;20275;-60
2022/06/04 07:38:15;;;;;;;6.10;5.50;;;20.70;99.90;;;;;;5033548;28;20206;-60
2022/06/04 07:40:42;;;;;;;6.85;5.25;;;21.00;99.90;;;;;;5033651;28;20207;-60
2022/06/04 07:43:08;;;;;;;5.85;4.53;;;21.50;99.90;;;;;;5033504;28;20260;-60
2022/06/04 07:45:35;;;;;;;6.35;5.03;;;22.40;99.90;;;;;;5032924;28;20345;-61
2022/06/04 07:48:02;;;;;;;6.60;4.50;;;23.50;99.90;;;;;;5033309;28;20226;-61
2022/06/04 07:50:29;;;;;;;5.70;5.10;;;24.50;99.90;;;;;;5032847;28;20567;-60
2022/06/04 07:52:57;;;;;;;8.05;5.50;;;25.00;99.90;;;;;;5033045;28;20297;-60
2022/06/04 07:55:26;;;;;;;7.60;5.05;;;25.60;99.90;;;;;;5032610;28;20298;-59
2022/06/04 07:57:53;;;;;;;8.50;5.40;;;26.20;99.90;;;;;;5032899;28;20222;-61
2022/06/04 08:00:20;;;;;;;6.90;5.18;;;26.60;99.90;;;;;;5032951;28;20210;-60
2022/06/04 08:02:47;;;;;;;5.68;4.95;;;26.90;99.90;;;;;;5032637;28;20674;-60
2022/06/04 08:05:15;;;;;;;5.45;4.95;;;27.30;99.90;;;;;;5032593;28;20701;-60
2022/06/04 08:07:42;;;;;;;6.45;5.13;;;27.40;99.90;;;;;;5032610;28;20690;-61
2022/06/04 08:10:10;;;;;;;6.00;5.40;;;27.40;99.90;;;;;;5032664;28;20237;-60
2022/06/04 08:12:41;;;;;;;6.53;5.45;;;28.00;99.90;;;;;;5032727;28;20244;-60
2022/06/04 08:15:09;;;;;;;6.22;5.40;;;29.10;99.90;;;;;;5032635;28;20245;-60
2022/06/04 08:17:36;;;;;;;6.13;4.70;;;29.40;99.90;;;;;;5032499;28;20222;-61
2022/06/04 08:20:03;;;;;;;7.90;4.70;;;30.20;99.90;;;;;;5032426;28;20206;-59
2022/06/04 08:22:30;;;;;;;6.70;4.90;;;31.20;99.90;;;;;;5032320;28;20213;-59
2022/06/04 08:24:56;;;;;;;5.03;4.53;;;32.60;99.90;;;;;;5032271;28;20213;-59
2022/06/04 08:27:24;;;;;;;5.30;4.65;;;34.70;99.90;;;;;;5032149;28;20288;-60
2022/06/04 08:29:52;;;;;;;4.95;4.55;;;36.40;93.00;;;;;;5032441;28;20210;-60
2022/06/04 08:32:19;;;;;;;5.20;4.70;;;37.00;87.00;;;;;;5032340;28;20212;-60
2022/06/04 08:34:46;;;;;;;5.03;4.53;;;36.70;84.80;;;;;;5032209;28;20241;-60
2022/06/04 08:37:13;;;;;;;5.43;4.93;;;36.90;82.70;;;;;;5032531;28;20328;-59
2022/06/04 08:39:39;;;;;;;6.03;4.80;;;36.30;85.10;;;;;;5031905;28;20217;-59
2022/06/04 08:42:25;;;;;;;5.95;4.57;;;36.50;83.50;;;;;;5032354;28;20276;-59
2022/06/04 08:44:58;;;;;;;6.07;4.53;;;36.50;83.80;;;;;;5032339;28;20217;-59
2022/06/04 08:47:31;;;;;;;5.43;4.65;;;36.40;82.60;;;;;;5032416;28;20241;-59
2022/06/04 08:50:02;;;;;;;5.40;4.90;;;36.00;83.00;;;;;;5032758;28;20213;-59
2022/06/04 08:52:32;;;;;;;9.38;6.10;;;35.50;83.80;;;;;;5032933;28;20217;-59
2022/06/04 08:57:58;;;;;;;6.63;5.30;;;33.70;87.00;;;;;;5032048;28;20241;-60
2022/06/04 09:00:35;;;;;;;6.25;5.63;;;32.30;90.90;;;;;;5031982;28;20214;-60
2022/06/04 09:03:10;;;;;;;7.88;5.80;;;31.80;91.90;;;;;;5032059;28;20210;-59
2022/06/04 09:05:56;;;;;;;6.30;5.63;;;31.70;92.70;;;;;;5031493;28;20228;-59
2022/06/04 09:08:40;;;;;;;5.93;5.32;;;31.60;94.10;;;;;;5031940;28;20230;-60
2022/06/04 09:11:16;;;;;;;6.22;5.63;;;31.70;94.70;;;;;;5032039;28;20752;-61
2022/06/04 09:13:48;;;;;;;7.40;6.18;;;31.80;94.10;;;;;;5031646;28;20210;-59
2022/06/04 09:16:25;;;;;;;7.00;5.50;;;32.00;93.50;;;;;;5014384;28;20632;-58
2022/06/04 09:18:58;;;;;;;7.35;6.22;;;31.90;93.60;;;;;;5031819;28;20221;-59
2022/06/04 09:21:29;;;;;;;8.88;6.38;;;31.30;94.50;;;;;;5032464;28;20298;-58
2022/06/04 09:23:56;;;;;;;7.50;6.43;;;30.60;96.10;;;;;;5032457;28;20214;-58
2022/06/04 09:26:33;;;;;;;6.82;6.15;;;30.10;97.40;;;;;;5032115;28;20237;-58
2022/06/04 09:29:13;;;;;;;6.53;5.75;;;29.50;98.80;;;;;;5031928;28;20232;-58
2022/06/04 09:31:47;;;;;;;5.55;5.05;;;29.10;99.90;;;;;;5032386;28;20217;-59
2022/06/04 09:34:19;;;;;;;5.63;5.07;;;29.30;99.90;;;;;;5031676;28;20300;-58
2022/06/04 09:36:46;;;;;;;6.88;5.97;;;29.70;99.90;;;;;;5031742;28;20237;-60
2022/06/04 09:39:22;;;;;;;6.13;5.60;;;30.20;99.40;;;;;;5031729;28;20560;-60
2022/06/04 09:41:55;;;;;;;5.95;5.43;;;30.60;97.00;;;;;;5031646;28;20214;-61
2022/06/04 09:44:23;;;;;;;6.28;5.68;;;30.30;97.80;;;;;;5031672;28;20206;-60
2022/06/04 09:46:56;;;;;;;6.07;5.57;;;30.10;97.50;;;;;;5031827;28;20234;-60
2022/06/04 09:49:34;;;;;;;6.03;5.20;;;29.90;97.90;;;;;;5033997;28;20229;-59
2022/06/04 09:52:14;;;;;;;7.13;5.82;;;29.60;98.70;;;;;;5034735;28;20205;-60
2022/06/04 09:54:42;;;;;;;6.43;5.80;;;29.40;99.80;;;;;;5035469;28;20696;-60
2022/06/04 09:57:26;;;;;;;6.07;5.55;;;29.60;99.60;;;;;;5035270;28;20633;-60
2022/06/04 09:59:55;;;;;;;7.22;6.53;;;29.70;99.90;;;;;;5035538;28;20264;-59
2022/06/04 10:02:24;;;;;;;8.20;6.28;;;29.70;99.70;;;;;;5035176;28;20210;-59
2022/06/04 10:05:02;;;;;;;10.77;7.55;;;29.40;99.90;;;;;;5035103;28;20229;-59
2022/06/04 10:07:32;;;;;;;8.63;7.82;;;29.00;99.90;;;;;;5035455;28;20222;-59
2022/06/04 10:10:03;;;;;;;8.68;7.70;;;28.40;99.90;;;;;;5035068;28;20203;-59
2022/06/04 10:15:37;;;;;;;11.48;9.68;;;28.10;99.90;;;;;;5034736;28;20201;-60
2022/06/04 10:18:16;;;;;;;11.25;9.50;;;28.00;99.90;;;;;;5034900;28;20225;-60
2022/06/04 10:20:53;;;;;;;11.48;10.38;;;27.60;99.90;;;;;;5034779;28;20214;-60
2022/06/04 10:23:20;;;;;;;11.60;10.50;;;27.20;99.90;;;;;;5034913;28;20210;-61
2022/06/04 10:26:09;;;;;;;12.50;11.15;;;26.80;99.90;;;;;;5034746;28;20206;-60
2022/06/04 10:28:44;;;;;;;12.25;11.02;;;26.40;99.90;;;;;;5035071;28;20226;-61
2022/06/04 10:31:21;;;;;;;12.57;11.38;;;25.90;99.90;;;;;;5034847;28;20205;-62
2022/06/04 10:33:57;;;;;;;12.15;11.00;;;25.60;99.90;;;;;;5034881;28;20233;-61
2022/06/04 10:36:44;;;;;;;13.65;12.23;;;25.40;99.90;;;;;;5035073;28;20230;-63
2022/06/04 10:39:24;;;;;;;14.35;12.90;;;25.40;99.90;;;;;;5034974;28;20202;-61
2022/06/04 10:41:57;;;;;;;14.73;12.85;;;25.20;99.90;;;;;;5034712;28;20649;-59
2022/06/04 10:44:35;;;;;;;13.77;12.35;;;25.10;99.90;;;;;;5034758;28;20190;-59
2022/06/04 10:47:09;;;;;;;13.90;12.57;;;25.00;99.90;;;;;;5034668;28;20645;-61
2022/06/04 10:50:03;;;;;;;13.18;11.88;;;25.00;99.90;;;;;;5034975;28;20606;-60
2022/06/04 10:52:38;;;;;;;11.90;10.80;;;25.20;99.90;;;;;;5034826;28;20206;-62
2022/06/04 10:55:12;;;;;;;10.20;9.30;;;25.10;99.90;;;;;;5034696;28;20210;-61
2022/06/04 10:57:47;;;;;;;11.43;10.32;;;25.00;99.90;;;;;;5034503;28;20257;-60
2022/06/04 11:00:18;;;;;;;12.35;11.25;;;25.10;99.90;;;;;;5034446;28;20206;-59
2022/06/04 11:02:51;;;;;;;10.27;9.38;;;25.10;99.90;;;;;;5033792;28;20293;-62
2022/06/04 11:05:24;;;;;;;11.65;10.45;;;25.20;99.90;;;;;;5034707;28;20272;-61
2022/06/04 11:07:57;;;;;;;10.98;10.05;;;25.10;99.90;;;;;;5034271;28;20252;-60
2022/06/04 11:10:26;;;;;;;11.32;10.23;;;25.00;99.90;;;;;;5034368;28;20229;-60
2022/06/04 11:12:59;;;;;;;12.63;11.43;;;25.00;99.90;;;;;;5034092;28;20218;-60
2022/06/04 11:15:34;;;;;;;10.55;9.65;;;25.00;99.90;;;;;;5033660;28;20210;-60
2022/06/04 11:18:06;;;;;;;10.48;9.52;;;24.80;99.90;;;;;;5034149;28;20230;-61
2022/06/04 11:20:39;;;;;;;11.02;9.73;;;24.50;99.90;;;;;;5034238;28;20210;-60
2022/06/04 11:23:28;;;;;;;10.15;9.20;;;24.30;99.90;;;;;;5034146;28;20697;-60
2022/06/04 11:28:33;;;;;;;8.73;8.00;;;24.10;99.90;;;;;;5033170;28;20323;-60
2022/06/04 11:31:14;;;;;;;9.38;8.32;;;24.20;99.90;;;;;;5034571;28;20206;-60
2022/06/04 11:33:59;;;;;;;9.57;8.55;;;24.40;99.90;;;;;;5034448;28;20210;-61
2022/06/04 11:36:33;;;;;;;11.52;9.68;;;24.60;99.90;;;;;;5033621;28;20261;-60
2022/06/04 11:39:15;;;;;;;9.20;8.30;;;24.70;99.90;;;;;;5034246;28;20204;-60
2022/06/04 11:41:50;;;;;;;10.35;8.27;;;24.60;99.90;;;;;;5033925;28;20261;-61
2022/06/04 11:44:41;;;;;;;9.85;8.95;;;24.80;99.90;;;;;;5033861;28;20561;-60
2022/06/04 11:47:20;;;;;;;9.98;9.07;;;25.00;99.90;;;;;;5033775;28;20744;-60
2022/06/04 11:49:54;;;;;;;10.05;9.13;;;25.10;99.90;;;;;;5034021;28;20236;-60
2022/06/04 11:52:27;;;;;;;9.73;8.57;;;25.10;99.90;;;;;;5034030;28;20206;-59
2022/06/04 11:55:17;;;;;;;9.77;8.65;;;25.00;99.90;;;;;;5033434;28;20297;-60
2022/06/04 11:57:56;;;;;;;9.75;8.95;;;25.00;99.90;;;;;;5033361;28;20710;-60
2022/06/04 12:00:29;;;;;;;12.32;10.30;;;25.00;99.90;;;;;;5033412;28;20202;-61
2022/06/04 12:03:02;;;;;;;11.27;9.68;;;25.00;99.90;;;;;;5033349;28;20632;-60
2022/06/04 12:05:39;;;;;;;9.80;8.90;;;25.10;99.90;;;;;;5033341;28;20218;-60
2022/06/04 12:08:10;;;;;;;8.73;7.93;;;25.10;99.90;;;;;;5033612;28;20236;-60
2022/06/04 12:10:48;;;;;;;11.68;10.27;;;25.00;99.90;;;;;;5034082;28;20210;-60
2022/06/04 12:13:23;;;;;;;11.60;9.75;;;25.00;99.90;;;;;;5033379;28;20206;-60
2022/06/04 12:15:54;;;;;;;10.60;9.48;;;25.20;99.90;;;;;;5032951;28;20573;-61
2022/06/04 12:18:27;;;;;;;11.60;10.02;;;25.40;99.90;;;;;;5033303;28;20233;-60
2022/06/04 12:26:31;;;;;;;10.23;9.18;;;27.00;99.90;;;;;;5032508;28;20616;-61
2022/06/04 12:28:58;;;;;;;10.32;9.43;;;27.40;99.90;;;;;;5032976;28;20222;-63
2022/06/04 12:31:29;;;;;;;10.00;9.15;;;27.60;99.90;;;;;;5032521;28;20206;-61
2022/06/04 12:33:56;;;;;;;9.00;7.93;;;27.90;99.90;;;;;;5032681;28;20206;-60
2022/06/04 12:36:28;;;;;;;8.35;7.55;;;28.10;99.90;;;;;;5032022;28;20232;-60
2022/06/04 12:39:04;;;;;;;9.05;8.15;;;28.30;99.90;;;;;;5032233;28;20549;-61
2022/06/04 12:41:42;;;;;;;9.63;8.63;;;28.50;99.90;;;;;;5033226;28;20224;-61
2022/06/04 12:44:27;;;;;;;8.40;7.60;;;28.30;99.90;;;;;;5033235;28;20213;-61
2022/06/04 12:46:56;;;;;;;8.70;7.85;;;28.40;99.90;;;;;;5033213;28;20233;-61
2022/06/04 12:49:38;;;;;;;8.93;8.13;;;28.60;99.90;;;;;;5032263;28;20226;-62
2022/06/04 12:52:23;;;;;;;8.65;7.85;;;28.60;99.90;;;;;;5032918;28;20210;-62
2022/06/04 12:54:56;;;;;;;9.05;8.15;;;28.50;99.90;;;;;;5032683;28;20214;-62
2022/06/04 12:57:52;;;;;;;8.38;7.50;;;28.50;99.90;;;;;;5032429;28;20709;-62
2022/06/04 13:00:34;;;;;;;7.97;7.28;;;28.80;99.90;;;;;;4986856;28;20592;-63
2022/06/04 13:03:37;;;;;;;9.65;7.88;;;29.10;99.90;;;;;;5032377;28;20210;-62
2022/06/04 13:06:24;;;;;;;8.90;8.07;;;29.40;99.90;;;;;;5026841;28;20224;-62
2022/06/04 13:08:59;;;;;;;7.55;6.85;;;29.60;99.90;;;;;;5032265;28;20234;-62
2022/06/04 13:11:52;;;;;;;9.10;7.97;;;29.60;99.90;;;;;;5032027;28;20217;-61
2022/06/04 13:14:33;;;;;;;8.18;7.38;;;29.40;99.90;;;;;;5032104;28;20248;-60
2022/06/04 13:17:16;;;;;;;8.70;7.75;;;29.10;99.90;;;;;;5032056;28;20245;-61
2022/06/04 13:20:22;;;;;;;9.65;8.60;;;28.90;99.90;;;;;;5032116;28;20205;-60
2022/06/04 13:22:52;;;;;;;8.05;7.35;;;28.50;99.90;;;;;;5024103;28;20210;-60
2022/06/04 13:25:24;;;;;;;8.02;7.22;;;28.20;99.90;;;;;;5032136;28;20233;-60
2022/06/04 13:27:55;;;;;;;11.40;10.25;;;28.00;99.90;;;;;;5035068;28;20739;-60
2022/06/04 13:30:25;;;;;;;6.45;5.85;;;28.00;99.90;;;;;;5036065;28;20697;-61